Time;durP1;ratioP1;P1;durP2;ratioP2;P2;SDS_P1;SDS_P2;PMS_P1;PMS_P2;Temp;Humidity;BMP_temperature;BMP_pressure;BME280_temperature;BME280_humidity;BME280_pressure;Samples;Min_cycle;Max_cycle;Signal;HPM_P1;HPM_P2
2022/11/22 00:00:43;;;;;;;25.30;10.48;;;;;;;4.03;93.02;98408.51;1682920;83;21045;-77
2022/11/22 00:03:12;;;;;;;28.23;11.18;;;;;;;3.99;93.00;98401.25;1689099;84;21070;-77
2022/11/22 00:05:39;;;;;;;23.22;10.68;;;;;;;3.97;93.21;98400.41;1683342;82;21030;-77
2022/11/22 00:08:07;;;;;;;24.52;9.93;;;;;;;4.02;93.00;98396.94;1702063;83;21018;-77
2022/11/22 00:10:35;;;;;;;24.15;11.18;;;;;;;4.00;92.89;98391.84;1682688;85;21052;-77
2022/11/22 00:13:03;;;;;;;27.00;11.50;;;;;;;3.98;93.05;98392.29;1700524;83;21037;-78
2022/11/22 00:15:31;;;;;;;27.22;11.63;;;;;;;4.00;93.07;98384.13;1673818;84;21069;-76
2022/11/22 00:17:59;;;;;;;30.65;12.53;;;;;;;3.95;93.36;98382.02;1703210;83;20974;-77
2022/11/22 00:20:27;;;;;;;26.75;12.05;;;;;;;3.90;93.66;98378.63;1673845;84;21072;-77
2022/11/22 00:22:57;;;;;;;26.45;11.35;;;;;;;3.93;93.38;98378.61;1702367;84;20978;-77
2022/11/22 00:25:26;;;;;;;24.70;12.00;;;;;;;3.91;93.53;98367.48;1673766;84;21005;-76
2022/11/22 00:27:54;;;;;;;27.35;11.83;;;;;;;3.89;93.55;98375.66;1703216;83;20986;-78
2022/11/22 00:30:22;;;;;;;28.30;12.47;;;;;;;3.89;93.57;98380.80;1673640;84;21461;-76
2022/11/22 00:32:49;;;;;;;21.62;10.93;;;;;;;3.88;93.79;98388.08;1703174;83;21010;-77
2022/11/22 00:35:17;;;;;;;27.20;12.78;;;;;;;3.87;93.50;98386.39;1673738;84;21056;-76
2022/11/22 00:37:44;;;;;;;24.27;12.50;;;;;;;3.90;93.59;98400.08;1698385;83;21039;-76
2022/11/22 00:40:12;;;;;;;25.23;10.88;;;;;;;3.84;93.56;98394.99;1702959;83;21459;-76
2022/11/22 00:42:39;;;;;;;22.32;11.85;;;;;;;3.89;93.34;98403.50;1709687;81;21025;-77
2022/11/22 00:45:08;;;;;;;23.00;11.93;;;;;;;3.86;93.58;98398.81;1701862;83;21003;-76
2022/11/22 00:47:35;;;;;;;26.50;11.08;;;;;;;3.83;93.71;98406.13;1709711;82;21136;-78
2022/11/22 00:50:04;;;;;;;27.32;12.58;;;;;;;3.86;93.69;98412.95;1693588;84;21091;-78
2022/11/22 00:52:31;;;;;;;26.80;11.88;;;;;;;3.91;93.41;98409.48;1696942;84;21017;-76
2022/11/22 00:54:59;;;;;;;25.30;10.95;;;;;;;3.86;93.45;98398.81;1696247;84;21099;-77
2022/11/22 00:57:26;;;;;;;25.97;11.38;;;;;;;3.87;93.55;98404.39;1689211;83;21032;-77
2022/11/22 00:59:54;;;;;;;24.82;11.10;;;;;;;3.88;93.55;98408.64;1679101;83;21021;-77
2022/11/22 01:02:21;;;;;;;24.00;10.55;;;;;;;3.87;93.56;98409.53;1696758;83;21116;-77
2022/11/22 01:04:49;;;;;;;25.23;11.20;;;;;;;3.94;93.20;98424.89;1679212;84;21018;-78
2022/11/22 01:07:17;;;;;;;23.25;12.20;;;;;;;3.94;93.09;98435.62;1701427;83;22172;-77
2022/11/22 01:09:44;;;;;;;25.32;11.65;;;;;;;3.92;93.15;98438.61;1709621;81;21548;-78
2022/11/22 01:12:11;;;;;;;26.50;12.28;;;;;;;3.90;93.14;98442.51;1720575;83;21082;-78
2022/11/22 01:14:39;;;;;;;27.98;11.33;;;;;;;3.86;93.25;98441.23;1707710;81;21053;-80
2022/11/22 01:17:06;;;;;;;24.50;11.22;;;;;;;3.87;93.39;98453.25;1702344;83;21036;-78
2022/11/22 01:19:34;;;;;;;24.85;11.05;;;;;;;3.87;93.22;98450.23;1706614;82;21115;-78
2022/11/22 01:22:01;;;;;;;26.55;11.65;;;;;;;3.87;93.22;98444.25;1702445;84;21097;-77
2022/11/22 01:24:29;;;;;;;23.30;11.20;;;;;;;3.85;93.39;98434.41;1710495;82;22215;-78
2022/11/22 01:26:56;;;;;;;27.67;12.18;;;;;;;3.90;93.27;98435.20;1698987;84;21138;-77
2022/11/22 01:29:24;;;;;;;25.50;11.83;;;;;;;3.86;93.22;98432.23;1710304;81;21029;-77
2022/11/22 01:31:52;;;;;;;24.98;11.50;;;;;;;3.87;93.18;98442.96;1701880;84;22052;-78
2022/11/22 01:34:19;;;;;;;29.12;11.75;;;;;;;3.83;93.15;98443.86;1710016;81;21619;-77
2022/11/22 01:36:47;;;;;;;24.98;10.28;;;;;;;3.84;93.04;98446.42;1701022;84;21062;-77
2022/11/22 01:39:14;;;;;;;24.50;10.75;;;;;;;3.84;93.08;98442.97;1709267;81;21024;-76
2022/11/22 01:41:42;;;;;;;24.92;11.50;;;;;;;3.85;93.06;98439.55;1701805;83;21368;-78
2022/11/22 01:44:29;;;;;;;29.32;12.05;;;;;;;3.86;92.99;98445.09;1710243;82;21092;-77
2022/11/22 01:47:08;;;;;;;22.73;11.00;;;;;;;3.80;93.02;98448.59;1691250;84;21022;-75
2022/11/22 01:49:52;;;;;;;27.65;10.90;;;;;;;3.81;92.96;98451.58;1704685;82;21037;-77
2022/11/22 01:52:24;;;;;;;24.37;10.85;;;;;;;3.71;93.22;98452.52;1693188;83;21308;-77
2022/11/22 01:54:59;;;;;;;30.17;12.68;;;;;;;3.69;93.26;98445.25;1702295;84;21094;-78
2022/11/22 01:57:31;;;;;;;22.35;10.23;;;;;;;3.66;93.17;98451.28;1714097;81;21100;-75
2022/11/22 02:00:13;;;;;;;39.25;12.15;;;;;;;3.63;93.06;98444.86;1702020;83;21034;-77
2022/11/22 02:02:49;;;;;;;31.27;11.00;;;;;;;3.59;93.36;98454.74;1710907;82;21598;-77
2022/11/22 02:05:21;;;;;;;23.70;11.33;;;;;;;3.57;93.37;98456.47;1701674;84;21002;-80
2022/11/22 02:08:08;;;;;;;27.55;11.95;;;;;;;3.52;93.54;98450.50;1709135;82;21061;-77
2022/11/22 02:10:41;;;;;;;21.73;10.65;;;;;;;3.49;93.71;98446.69;1701336;83;21030;-77
2022/11/22 02:13:10;;;;;;;24.77;10.72;;;;;;;3.47;93.79;98452.27;1709244;81;21041;-77
2022/11/22 02:15:38;;;;;;;26.40;12.80;;;;;;;3.42;93.85;98464.28;1701421;83;21003;-77
2022/11/22 02:18:06;;;;;;;25.62;10.93;;;;;;;3.42;94.02;98460.42;1708953;81;20982;-77
2022/11/22 02:20:33;;;;;;;24.45;11.05;;;;;;;3.39;93.87;98464.72;1701486;83;21054;-76
2022/11/22 02:23:23;;;;;;;27.80;12.03;;;;;;;3.41;93.57;98457.45;1709289;81;21034;-77
2022/11/22 02:25:55;;;;;;;25.32;12.00;;;;;;;3.33;94.21;98454.48;1701298;83;21002;-76
2022/11/22 02:28:24;;;;;;;27.60;11.93;;;;;;;3.34;94.29;98451.07;1710232;81;21140;-76
2022/11/22 02:30:51;;;;;;;28.73;12.68;;;;;;;3.35;94.30;98443.77;1702414;83;21081;-78
2022/11/22 02:33:19;;;;;;;28.75;11.88;;;;;;;3.32;94.46;98448.06;1709588;81;21037;-77
2022/11/22 02:35:47;;;;;;;26.15;11.83;;;;;;;3.31;94.38;98440.80;1701400;83;21946;-77
2022/11/22 02:38:22;;;;;;;26.87;11.97;;;;;;;3.30;93.84;98439.11;1702386;83;21037;-77
2022/11/22 02:40:56;;;;;;;25.20;11.00;;;;;;;3.25;94.40;98441.28;1700044;83;21029;-77
2022/11/22 02:43:31;;;;;;;26.57;11.15;;;;;;;3.23;93.93;98439.16;1690188;83;21018;-76
2022/11/22 02:46:05;;;;;;;25.23;10.68;;;;;;;3.20;93.77;98447.70;1696170;83;21033;-77
2022/11/22 02:48:33;;;;;;;28.15;10.50;;;;;;;3.13;94.08;98451.19;1689005;84;21093;-77
2022/11/22 02:51:00;;;;;;;27.32;11.15;;;;;;;3.08;94.11;98451.63;1695057;83;21463;-77
2022/11/22 02:53:30;;;;;;;24.92;11.85;;;;;;;3.01;94.22;98456.40;1700191;83;21044;-77
2022/11/22 02:55:58;;;;;;;26.27;10.78;;;;;;;2.97;94.45;98460.69;1699930;83;21602;-77
2022/11/22 02:58:25;;;;;;;27.48;11.10;;;;;;;2.94;94.23;98474.81;1698506;83;21573;-78
2022/11/22 03:00:53;;;;;;;18.67;10.32;;;;;;;2.90;94.12;98464.13;1712846;82;21544;-77
2022/11/22 03:03:20;;;;;;;29.60;12.28;;;;;;;2.86;94.12;98467.14;1718785;83;21065;-77
2022/11/22 03:05:47;;;;;;;30.68;11.85;;;;;;;2.76;94.39;98462.91;1688586;83;21002;-77
2022/11/22 03:08:15;;;;;;;23.42;11.43;;;;;;;2.71;94.10;98456.52;1716775;83;21566;-77
2022/11/22 03:10:42;;;;;;;25.05;11.00;;;;;;;2.62;94.32;98467.23;1706877;83;21009;-77
2022/11/22 03:13:10;;;;;;;24.87;10.98;;;;;;;2.54;94.86;98471.95;1700250;83;21080;-78
2022/11/22 03:15:38;;;;;;;23.67;10.08;;;;;;;2.55;94.26;98468.55;1700147;83;21069;-77
2022/11/22 03:18:05;;;;;;;21.48;10.58;;;;;;;2.45;95.60;98464.70;1699850;83;21018;-77
2022/11/22 03:20:33;;;;;;;37.67;11.00;;;;;;;2.42;95.83;98466.86;1700253;83;21086;-76
2022/11/22 03:23:01;;;;;;;27.22;11.55;;;;;;;2.42;95.29;98471.14;1700161;83;21032;-77
2022/11/22 03:25:28;;;;;;;24.60;10.15;;;;;;;2.37;95.83;98472.02;1700520;83;21608;-78
2022/11/22 03:27:56;;;;;;;25.02;11.45;;;;;;;2.36;95.86;98472.01;1700604;84;20990;-77
2022/11/22 03:30:23;;;;;;;29.20;11.28;;;;;;;2.35;96.23;98480.58;1700568;83;21026;-78
2022/11/22 03:32:50;;;;;;;22.17;9.75;;;;;;;2.33;96.29;98483.58;1700133;83;20974;-78
2022/11/22 03:35:18;;;;;;;31.48;11.12;;;;;;;2.33;95.91;98483.14;1700563;83;21084;-77
2022/11/22 03:37:45;;;;;;;21.77;10.68;;;;;;;2.31;95.75;98481.00;1700929;83;21069;-77
2022/11/22 03:40:13;;;;;;;27.13;11.63;;;;;;;2.30;95.69;98483.56;1702553;83;21041;-77
2022/11/22 03:42:41;;;;;;;17.87;9.13;;;;;;;2.25;96.24;98487.44;1701855;83;21022;-76
2022/11/22 03:45:09;;;;;;;23.47;10.90;;;;;;;2.24;95.62;98498.97;1682816;84;21051;-77
2022/11/22 03:47:36;;;;;;;27.22;11.22;;;;;;;2.21;96.24;98497.67;1701791;83;21127;-77
2022/11/22 03:50:05;;;;;;;25.00;10.63;;;;;;;2.18;96.05;98490.84;1672710;84;21323;-77
2022/11/22 03:52:32;;;;;;;25.25;10.90;;;;;;;2.16;96.04;98493.84;1702914;83;21458;-77
2022/11/22 03:55:00;;;;;;;25.02;10.23;;;;;;;2.14;95.93;98495.55;1673469;84;20989;-77
2022/11/22 03:57:27;;;;;;;31.20;10.50;;;;;;;2.10;96.13;98495.13;1703334;83;20994;-76
2022/11/22 03:59:55;;;;;;;23.62;9.10;;;;;;;2.09;95.44;98489.56;1673482;85;21021;-77
2022/11/22 04:02:22;;;;;;;25.85;10.10;;;;;;;2.06;95.85;98488.30;1683891;84;20972;-77
2022/11/22 04:04:50;;;;;;;23.75;9.80;;;;;;;2.03;95.77;98485.72;1702380;83;21002;-76
2022/11/22 04:07:17;;;;;;;24.72;10.13;;;;;;;1.99;95.87;98482.33;1683581;85;21000;-77
2022/11/22 04:09:45;;;;;;;32.48;10.50;;;;;;;1.98;96.05;98485.73;1703118;83;20930;-76
2022/11/22 04:12:12;;;;;;;24.20;10.38;;;;;;;1.94;95.86;98482.31;1673393;84;21008;-76
2022/11/22 04:17:43;;;;;;;24.95;10.53;;;;;;;1.83;96.25;98478.92;1664612;84;21028;-77
2022/11/22 04:23:17;;;;;;;26.05;10.45;;;;;;;1.79;96.11;98493.44;1686697;83;21084;-77
2022/11/22 04:25:49;;;;;;;24.90;10.68;;;;;;;1.80;95.87;98496.84;1672541;84;21035;-77
2022/11/22 04:28:21;;;;;;;30.02;11.33;;;;;;;1.79;95.41;98503.69;1702341;83;21116;-76
2022/11/22 04:33:36;;;;;;;28.65;10.60;;;;;;;1.73;94.83;98498.96;1682834;85;21047;-77
2022/11/22 04:36:04;;;;;;;30.05;10.93;;;;;;;1.66;95.14;98500.67;1701932;83;21531;-77
2022/11/22 04:38:32;;;;;;;20.75;9.05;;;;;;;1.64;95.40;98502.82;1695760;84;21034;-76
2022/11/22 04:40:59;;;;;;;26.02;10.23;;;;;;;1.62;95.48;98506.66;1701251;83;21037;-78
2022/11/22 04:46:15;;;;;;;21.95;9.50;;;;;;;1.55;95.80;98508.77;1709511;84;22040;-79
2022/11/22 04:48:42;;;;;;;23.20;9.58;;;;;;;1.52;96.18;98512.19;1709781;82;22146;-80
2022/11/22 04:53:59;;;;;;;20.57;8.93;;;;;;;1.52;95.83;98513.90;1710692;84;21026;-76
2022/11/22 04:56:26;;;;;;;24.00;9.13;;;;;;;1.53;95.56;98515.59;1709413;82;21522;-77
2022/11/22 04:58:54;;;;;;;24.30;10.03;;;;;;;1.52;95.26;98512.19;1709361;82;22258;-76
2022/11/22 05:01:21;;;;;;;23.42;9.35;;;;;;;1.47;96.48;98516.87;1709608;82;21144;-77
2022/11/22 05:03:49;;;;;;;20.00;8.85;;;;;;;1.46;96.42;98515.17;1709594;82;20994;-77
2022/11/22 05:06:17;;;;;;;21.80;9.45;;;;;;;1.47;96.82;98506.62;1709398;84;21097;-77
2022/11/22 05:08:44;;;;;;;18.57;8.53;;;;;;;1.48;96.33;98522.00;1709300;83;21065;-76
2022/11/22 05:11:12;;;;;;;16.85;7.08;;;;;;;1.44;96.10;98510.04;1710597;82;21045;-77
2022/11/22 05:13:41;;;;;;;19.60;7.70;;;;;;;1.41;96.00;98511.30;1708906;82;21323;-77
2022/11/22 05:16:13;;;;;;;19.10;7.47;;;;;;;1.37;96.20;98511.74;1680794;84;21899;-77
2022/11/22 05:18:41;;;;;;;18.50;9.40;;;;;;;1.37;96.44;98504.46;1709283;84;21018;-76
2022/11/22 05:21:13;;;;;;;27.70;10.08;;;;;;;1.43;96.47;98513.88;1711106;82;21054;-78
2022/11/22 05:23:56;;;;;;;21.42;9.25;;;;;;;1.45;96.79;98509.17;1710530;84;21009;-75
2022/11/22 05:26:32;;;;;;;20.95;9.45;;;;;;;1.49;97.07;98516.44;1691668;82;21030;-77
2022/11/22 05:29:09;;;;;;;19.92;8.58;;;;;;;1.48;96.63;98518.16;1710654;82;21518;-75
2022/11/22 05:31:38;;;;;;;21.60;8.28;;;;;;;1.46;97.05;98513.89;1710934;82;21550;-77
2022/11/22 05:34:06;;;;;;;20.23;8.10;;;;;;;1.45;96.64;98514.73;1709000;84;21983;-77
2022/11/22 05:36:34;;;;;;;21.90;9.15;;;;;;;1.45;96.99;98526.25;1709468;82;21078;-77
2022/11/22 05:39:03;;;;;;;18.27;8.90;;;;;;;1.45;96.84;98524.54;1708858;83;21954;-77
2022/11/22 05:41:30;;;;;;;21.37;7.78;;;;;;;1.49;96.92;98519.00;1709510;84;21062;-77
2022/11/22 05:43:59;;;;;;;18.85;8.03;;;;;;;1.46;96.26;98521.58;1709322;84;21010;-77
2022/11/22 05:46:30;;;;;;;15.43;7.05;;;;;;;1.39;96.21;98519.41;1708230;82;21010;-78
2022/11/22 05:48:58;;;;;;;14.58;6.65;;;;;;;1.31;96.43;98528.78;1710525;83;21609;-77
2022/11/22 05:51:30;;;;;;;16.02;7.30;;;;;;;1.26;96.58;98537.73;1710809;82;21138;-77
2022/11/22 05:53:58;;;;;;;18.00;7.78;;;;;;;1.22;96.88;98536.02;1710518;82;21025;-77
2022/11/22 05:56:26;;;;;;;15.28;6.17;;;;;;;1.23;96.97;98538.99;1709803;82;21013;-76
2022/11/22 05:58:53;;;;;;;16.45;6.78;;;;;;;1.16;96.73;98538.56;1709290;82;21077;-77
2022/11/22 06:01:23;;;;;;;16.93;7.83;;;;;;;1.17;96.72;98536.41;1709655;82;21037;-76
2022/11/22 06:03:51;;;;;;;16.20;7.30;;;;;;;1.26;96.82;98542.86;1733486;82;21483;-77
2022/11/22 06:06:19;;;;;;;16.00;7.75;;;;;;;1.30;97.18;98535.61;1710265;83;21057;-76
2022/11/22 06:08:48;;;;;;;17.60;8.03;;;;;;;1.35;97.18;98531.38;1709918;82;21042;-76
2022/11/22 06:11:23;;;;;;;15.38;6.85;;;;;;;1.38;97.06;98527.52;1709233;82;21057;-75
2022/11/22 06:13:55;;;;;;;15.50;6.75;;;;;;;1.39;96.62;98543.73;1709036;82;21045;-77
2022/11/22 06:16:24;;;;;;;17.65;7.55;;;;;;;1.41;96.47;98546.31;1707779;84;21030;-76
2022/11/22 06:18:53;;;;;;;14.23;6.87;;;;;;;1.37;96.43;98546.32;1710372;82;21324;-75
2022/11/22 06:21:24;;;;;;;13.40;7.33;;;;;;;1.39;97.32;98547.58;1708679;83;21010;-77
2022/11/22 06:23:54;;;;;;;14.13;6.85;;;;;;;1.41;96.81;98556.12;1709679;82;21029;-75
2022/11/22 06:26:23;;;;;;;19.82;8.33;;;;;;;1.44;96.78;98561.27;1710711;84;20950;-77
2022/11/22 06:28:51;;;;;;;14.53;7.37;;;;;;;1.50;96.79;98560.44;1711027;82;21151;-77
2022/11/22 06:31:22;;;;;;;18.52;8.70;;;;;;;1.55;96.74;98556.16;1709974;84;21025;-77
2022/11/22 06:33:53;;;;;;;14.78;7.58;;;;;;;1.52;96.22;98558.30;1710003;82;21287;-75
2022/11/22 06:36:27;;;;;;;19.07;7.65;;;;;;;1.51;96.09;98560.45;1709950;83;21510;-80
2022/11/22 06:38:54;;;;;;;14.38;6.87;;;;;;;1.49;95.95;98559.59;1717397;82;21573;-75
2022/11/22 06:41:29;;;;;;;18.75;7.22;;;;;;;1.51;96.75;98562.13;1720833;82;21621;-77
2022/11/22 06:43:57;;;;;;;15.40;8.38;;;;;;;1.57;96.23;98562.14;1709802;82;21022;-78
2022/11/22 06:46:26;;;;;;;17.60;8.55;;;;;;;1.50;95.87;98566.84;1720911;83;21042;-79
2022/11/22 06:48:53;;;;;;;14.87;8.08;;;;;;;1.50;96.61;98574.09;1700507;83;21133;-78
2022/11/22 06:51:25;;;;;;;19.60;9.58;;;;;;;1.60;96.79;98573.70;1720903;83;21019;-79
2022/11/22 06:53:54;;;;;;;16.17;7.62;;;;;;;1.67;96.58;98574.16;1684124;83;21011;-77
2022/11/22 06:56:32;;;;;;;16.37;8.00;;;;;;;1.67;95.95;98575.44;1708671;83;21105;-79
2022/11/22 06:59:02;;;;;;;17.65;8.20;;;;;;;1.69;96.01;98579.25;1700207;83;21603;-76
2022/11/22 07:01:32;;;;;;;19.35;8.23;;;;;;;1.64;96.51;98583.09;1719948;83;20984;-76
2022/11/22 07:04:01;;;;;;;16.15;7.72;;;;;;;1.67;96.23;98590.81;1696301;83;21541;-77
2022/11/22 07:06:34;;;;;;;18.60;8.13;;;;;;;1.64;95.85;98591.22;1720128;83;21010;-77
2022/11/22 07:09:06;;;;;;;20.68;9.45;;;;;;;1.70;96.12;98596.36;1701086;83;20998;-79
2022/11/22 07:11:34;;;;;;;21.27;9.28;;;;;;;1.75;95.78;98598.48;1722128;83;21959;-79
2022/11/22 07:14:04;;;;;;;21.07;9.73;;;;;;;1.78;95.67;98599.80;1705577;83;20989;-78
2022/11/22 07:16:31;;;;;;;23.50;9.45;;;;;;;1.87;96.43;98592.13;1721829;82;20993;-77
2022/11/22 07:18:59;;;;;;;26.33;10.08;;;;;;;2.01;96.74;98589.99;1721564;83;21003;-79
2022/11/22 07:21:27;;;;;;;22.00;9.60;;;;;;;2.11;96.66;98587.45;1702029;83;20990;-78
2022/11/22 07:23:55;;;;;;;19.27;9.00;;;;;;;2.22;96.59;98586.60;1721585;82;20975;-78
2022/11/22 07:26:25;;;;;;;20.50;8.90;;;;;;;2.31;96.68;98586.18;1705121;83;21002;-78
2022/11/22 07:28:53;;;;;;;16.82;8.15;;;;;;;2.41;96.57;98583.19;1718339;82;21039;-78
2022/11/22 07:31:20;;;;;;;25.72;10.30;;;;;;;2.47;96.35;98574.64;1687365;84;21002;-78
2022/11/22 07:33:48;;;;;;;18.82;8.90;;;;;;;2.56;96.10;98588.72;1704206;83;21553;-78
2022/11/22 07:36:21;;;;;;;20.35;9.35;;;;;;;2.65;95.66;98584.02;1722264;82;21522;-79
2022/11/22 07:38:50;;;;;;;23.00;9.23;;;;;;;2.70;95.12;98584.85;1701609;83;21055;-78
2022/11/22 07:41:18;;;;;;;22.40;9.25;;;;;;;2.68;94.59;98580.15;1682030;83;21052;-78
2022/11/22 07:43:46;;;;;;;26.40;9.83;;;;;;;2.64;94.57;98578.45;1692365;83;21056;-78
2022/11/22 07:46:28;;;;;;;23.83;9.03;;;;;;;2.65;94.38;98584.02;1705597;83;21003;-77
2022/11/22 07:48:54;;;;;;;19.30;8.25;;;;;;;2.71;94.76;98583.57;1712329;82;21085;-76
2022/11/22 07:51:21;;;;;;;22.22;9.10;;;;;;;2.87;94.90;98580.55;1711279;82;21503;-79
2022/11/22 07:53:49;;;;;;;24.70;9.43;;;;;;;2.96;94.34;98589.92;1710406;82;21082;-78
2022/11/22 07:56:17;;;;;;;21.87;10.35;;;;;;;2.90;94.72;98587.38;1709110;82;21040;-78
2022/11/22 07:58:45;;;;;;;29.85;11.20;;;;;;;2.77;93.85;98595.55;1709899;82;21101;-77
2022/11/22 08:01:16;;;;;;;24.98;10.25;;;;;;;2.91;94.31;98596.80;1712464;82;21030;-78
2022/11/22 08:03:44;;;;;;;20.20;9.08;;;;;;;2.98;93.73;98601.05;1709630;81;21607;-76
2022/11/22 08:06:13;;;;;;;22.35;10.08;;;;;;;3.01;93.60;98595.07;1709200;82;21018;-78
2022/11/22 08:08:41;;;;;;;25.95;11.97;;;;;;;2.94;94.34;98592.48;1674014;83;21053;-77
2022/11/22 08:11:10;;;;;;;25.92;12.00;;;;;;;2.89;93.41;98595.52;1712403;82;21607;-78
2022/11/22 08:13:38;;;;;;;28.60;13.32;;;;;;;2.93;94.12;98592.08;1707623;83;21018;-77
2022/11/22 08:16:13;;;;;;;28.83;12.20;;;;;;;3.03;94.24;98592.06;1709593;82;21025;-77
2022/11/22 08:18:47;;;;;;;29.40;12.13;;;;;;;3.09;94.05;98575.35;1697135;84;21128;-76
2022/11/22 08:21:17;;;;;;;33.00;12.28;;;;;;;3.17;94.28;98574.45;1702795;84;20967;-77
2022/11/22 08:23:47;;;;;;;31.52;13.13;;;;;;;3.25;94.71;98574.42;1710646;82;20997;-77
2022/11/22 08:26:17;;;;;;;31.15;13.68;;;;;;;3.32;94.38;98574.84;1694484;84;21017;-77
2022/11/22 08:28:45;;;;;;;33.63;14.60;;;;;;;3.39;94.11;98571.80;1688036;84;21634;-77
2022/11/22 08:31:17;;;;;;;33.83;14.43;;;;;;;3.43;93.23;98566.22;1696025;84;21087;-78
2022/11/22 08:33:47;;;;;;;40.90;16.87;;;;;;;3.50;93.81;98561.45;1699021;83;21057;-77
2022/11/22 08:36:14;;;;;;;37.05;16.62;;;;;;;3.55;93.78;98550.73;1703591;81;22176;-76
2022/11/22 08:38:42;;;;;;;42.85;17.62;;;;;;;3.59;93.71;98549.41;1716014;82;21605;-76
2022/11/22 08:41:10;;;;;;;42.45;16.75;;;;;;;3.55;93.20;98543.02;1701749;83;21105;-78
2022/11/22 08:43:38;;;;;;;46.48;16.50;;;;;;;3.61;93.77;98528.00;1709745;82;21040;-77
2022/11/22 08:46:06;;;;;;;43.15;16.57;;;;;;;3.62;93.71;98520.69;1697512;83;21074;-76
2022/11/22 08:48:35;;;;;;;45.17;15.03;;;;;;;3.60;93.33;98528.41;1709570;81;21061;-77
2022/11/22 08:51:07;;;;;;;40.48;16.85;;;;;;;3.58;93.19;98525.00;1702021;83;21078;-77
2022/11/22 08:53:37;;;;;;;40.28;16.70;;;;;;;3.50;93.46;98525.06;1710896;82;20966;-78
2022/11/22 08:56:08;;;;;;;41.35;16.82;;;;;;;3.50;93.78;98518.64;1702915;83;21027;-77
2022/11/22 08:58:36;;;;;;;45.90;20.75;;;;;;;3.57;93.53;98515.59;1710678;81;21040;-77
2022/11/22 09:01:12;;;;;;;39.98;16.65;;;;;;;3.55;93.73;98511.73;1701801;84;21082;-77
2022/11/22 09:03:41;;;;;;;46.40;17.85;;;;;;;3.62;93.85;98501.41;1713923;82;21015;-76
2022/11/22 09:06:17;;;;;;;44.80;18.77;;;;;;;3.67;93.66;98500.97;1697812;83;21099;-76
2022/11/22 09:08:45;;;;;;;37.90;15.83;;;;;;;3.70;93.96;98505.66;1680841;83;21014;-78
2022/11/22 09:11:17;;;;;;;35.50;15.83;;;;;;;3.74;93.75;98512.89;1702255;83;21118;-78
2022/11/22 09:13:45;;;;;;;38.78;15.03;;;;;;;3.76;93.73;98509.47;1702283;83;21474;-77
2022/11/22 09:16:17;;;;;;;35.92;12.93;;;;;;;3.84;93.84;98512.40;1728962;81;21033;-77
2022/11/22 09:18:46;;;;;;;42.45;16.62;;;;;;;3.83;93.17;98509.42;1697667;84;21011;-78
2022/11/22 09:21:18;;;;;;;46.13;17.65;;;;;;;3.81;93.47;98510.72;1686154;84;21013;-77
2022/11/22 09:23:48;;;;;;;35.92;14.65;;;;;;;3.83;93.77;98504.28;1679857;83;21044;-77
2022/11/22 09:26:20;;;;;;;34.27;14.60;;;;;;;3.87;93.42;98504.23;1689977;84;20998;-77
2022/11/22 09:28:48;;;;;;;34.80;15.13;;;;;;;3.89;93.71;98510.22;1698587;84;20963;-77
2022/11/22 09:31:19;;;;;;;32.70;13.88;;;;;;;3.94;93.89;98498.19;1697522;83;21570;-77
2022/11/22 09:33:48;;;;;;;34.63;14.93;;;;;;;4.05;93.91;98496.80;1701806;84;21534;-76
2022/11/22 09:36:26;;;;;;;40.28;15.00;;;;;;;4.14;93.63;98480.02;1709037;82;21025;-77
2022/11/22 09:38:55;;;;;;;40.80;14.35;;;;;;;4.24;93.85;98476.92;1688673;84;21026;-79
2022/11/22 09:41:51;;;;;;;31.73;13.50;;;;;;;4.36;94.06;98465.66;1691134;83;20994;-80
2022/11/22 09:44:33;;;;;;;26.57;12.85;;;;;;;4.49;94.15;98466.38;1694081;83;22058;-78
2022/11/22 09:47:12;;;;;;;23.57;12.07;;;;;;;4.64;94.51;98462.80;1711530;83;21042;-77
2022/11/22 09:49:53;;;;;;;24.72;11.93;;;;;;;4.79;94.14;98466.45;1700094;83;21080;-79
2022/11/22 09:52:49;;;;;;;21.45;10.82;;;;;;;4.93;93.86;98454.28;1700233;84;21025;-78
2022/11/22 09:55:22;;;;;;;24.75;11.35;;;;;;;5.03;93.28;98446.42;1700317;83;21013;-77
2022/11/22 09:57:58;;;;;;;34.90;12.58;;;;;;;5.13;92.67;98443.72;1703048;83;21987;-79
2022/11/22 10:00:27;;;;;;;26.87;13.03;;;;;;;5.24;93.15;98435.83;1699818;83;21913;-78
2022/11/22 10:03:26;;;;;;;29.12;11.93;;;;;;;5.31;92.79;98434.00;1699687;84;21034;-79
2022/11/22 10:05:57;;;;;;;31.23;13.32;;;;;;;5.40;92.46;98438.19;1699383;83;21033;-77
2022/11/22 10:09:06;;;;;;;28.57;12.35;;;;;;;5.49;92.75;98441.90;1699006;83;21076;-77
2022/11/22 10:11:53;;;;;;;27.25;13.53;;;;;;;5.58;92.08;98434.03;1689243;84;20955;-76
2022/11/22 10:14:47;;;;;;;26.30;12.73;;;;;;;5.69;91.50;98434.73;1697059;83;21434;-78
2022/11/22 10:17:49;;;;;;;28.20;10.95;;;;;;;5.78;91.26;98430.69;1697142;83;21102;-77
2022/11/22 10:20:24;;;;;;;21.00;10.55;;;;;;;5.85;90.67;98422.43;1710658;82;21042;-79
2022/11/22 10:22:52;;;;;;;29.35;9.93;;;;;;;5.92;89.28;98428.33;1699423;83;21052;-78
2022/11/22 10:25:27;;;;;;;21.30;9.10;;;;;;;6.03;89.72;98424.30;1720126;83;20991;-78
2022/11/22 10:27:59;;;;;;;21.62;9.60;;;;;;;6.14;89.30;98425.80;1680430;83;21018;-77
2022/11/22 10:30:34;;;;;;;20.95;8.30;;;;;;;6.22;87.82;98422.25;1710549;83;21035;-78
2022/11/22 10:33:13;;;;;;;17.70;8.33;;;;;;;6.27;88.01;98411.41;1671897;84;21023;-78
2022/11/22 10:36:01;;;;;;;17.92;9.23;;;;;;;6.38;87.24;98412.88;1707117;83;21690;-78
2022/11/22 10:38:37;;;;;;;20.15;10.18;;;;;;;6.56;87.70;98409.13;1684145;83;21032;-77
2022/11/22 10:41:31;;;;;;;16.90;8.78;;;;;;;6.62;85.78;98413.28;1694912;83;21078;-77
2022/11/22 10:44:36;;;;;;;24.87;9.13;;;;;;;6.73;86.34;98406.19;1682102;85;21563;-76
2022/11/22 10:47:17;;;;;;;17.57;8.60;;;;;;;6.84;85.72;98399.48;1701418;83;21553;-79
2022/11/22 10:49:51;;;;;;;16.23;9.45;;;;;;;6.90;84.81;98399.39;1680810;84;21660;-77
2022/11/22 10:52:43;;;;;;;16.85;8.20;;;;;;;7.02;83.42;98397.40;1653128;86;21097;-77
2022/11/22 10:55:28;;;;;;;18.17;7.55;;;;;;;7.18;84.13;98394.88;1695398;83;21030;-77
2022/11/22 10:58:25;;;;;;;17.00;7.78;;;;;;;7.31;83.15;98392.87;1675367;84;21083;-77
2022/11/22 11:01:04;;;;;;;13.83;7.58;;;;;;;7.42;82.73;98386.14;1699996;83;21086;-77
2022/11/22 11:03:36;;;;;;;19.17;9.50;;;;;;;7.56;82.79;98377.64;1679827;85;22151;-77
2022/11/22 11:06:27;;;;;;;16.67;8.33;;;;;;;7.70;84.09;98374.27;1681874;85;21029;-77
2022/11/22 11:09:24;;;;;;;19.27;8.78;;;;;;;7.84;83.79;98379.52;1651354;85;21370;-77
2022/11/22 11:11:52;;;;;;;18.17;8.33;;;;;;;7.99;82.42;98371.36;1670996;84;21007;-77
2022/11/22 11:14:39;;;;;;;15.48;7.42;;;;;;;8.06;81.73;98369.02;1703425;83;21021;-77
2022/11/22 11:17:07;;;;;;;17.73;7.35;;;;;;;8.21;82.45;98366.91;1680007;85;21052;-77
2022/11/22 11:19:39;;;;;;;12.70;6.58;;;;;;;8.38;81.41;98370.34;1703060;83;20962;-77
2022/11/22 11:22:12;;;;;;;14.03;6.80;;;;;;;8.48;78.66;98361.45;1683773;84;21014;-77
2022/11/22 11:24:40;;;;;;;14.33;6.50;;;;;;;8.64;79.46;98364.45;1675324;83;21014;-77
2022/11/22 11:27:11;;;;;;;16.55;7.45;;;;;;;8.80;80.67;98360.97;1683749;85;21006;-77
2022/11/22 11:29:55;;;;;;;16.02;6.87;;;;;;;8.82;78.04;98356.59;1702934;83;20973;-78
2022/11/22 11:32:22;;;;;;;11.60;5.95;;;;;;;8.87;74.14;98355.98;1675315;85;21104;-77
2022/11/22 11:35:04;;;;;;;14.70;6.87;;;;;;;8.91;78.11;98357.16;1677974;84;21081;-77
2022/11/22 11:37:35;;;;;;;11.05;5.90;;;;;;;9.01;77.66;98355.56;1681908;85;21071;-77
2022/11/22 11:40:05;;;;;;;13.40;5.97;;;;;;;9.06;75.09;98349.34;1659412;82;20985;-77
2022/11/22 11:42:34;;;;;;;17.30;6.47;;;;;;;9.11;75.68;98342.72;1693552;84;21122;-77
2022/11/22 11:45:26;;;;;;;20.12;6.72;;;;;;;9.18;76.24;98331.27;1697769;84;21039;-77
2022/11/22 11:47:53;;;;;;;11.97;6.30;;;;;;;9.22;76.67;98328.97;1697418;83;20982;-78
2022/11/22 11:50:28;;;;;;;15.55;6.45;;;;;;;9.26;75.00;98320.19;1709196;84;21037;-78
2022/11/22 11:53:06;;;;;;;13.45;6.72;;;;;;;9.25;75.40;98310.73;1710326;84;21070;-78
2022/11/22 11:55:35;;;;;;;13.78;6.78;;;;;;;9.23;73.34;98309.94;1711087;84;21034;-78
2022/11/22 11:58:13;;;;;;;13.35;6.25;;;;;;;9.22;75.50;98313.87;1710492;82;20966;-78
2022/11/22 12:00:41;;;;;;;14.30;6.25;;;;;;;9.19;75.29;98313.53;1709789;82;21077;-78
2022/11/22 12:03:14;;;;;;;13.18;6.40;;;;;;;9.04;73.63;98299.75;1709600;82;21081;-78